気象予報士の航空気象 関東 大荒れ 竜巻注意情報とか多数

*All archives   *Admin

2015.07.04 (Sat)

関東 大荒れ 竜巻注意情報とか多数

ひどいころの羽田空港
午前中
RJTT 030047Z 32009KT 1300 R34L/0750V1800U R22/0700V1400U R34R/0550V1100U R23/0550V1700U +SHRA BR FEW002 SCT007 BKN010 22/21 Q1005 RMK 1ST002 4ST007 6ST010 A2970 RI++
RJTT 030044Z 31008KT 0800 R34L/0750V1800U R22/0700V1400U R34R/0550V1500D R23/0550V0800D +SHRA FEW002 SCT007 BKN010 21/21 Q1005 RMK 1ST002 4ST007 6ST010 A2970 RI++
RJTT 030043Z 31007KT 0800 R34L/0750V1700N R22/0700V1400U R34R/0550V1500D R23/0550V0800D +SHRA FEW002 SCT007 BKN010 21/21 Q1006 RMK 1ST002 4ST007 6ST010 A2971 P/RR RI++
RJTT 030037Z 03006KT 330V050 0800 R34L/0700V1300U R22/0750V1200N R34R/0800V1500U R23/0650V1600D +SHRA FEW002 SCT007 BKN012 21/21 Q1005 RMK 1ST002 4ST007 6ST012 A2970 RI++
RJTT 030034Z 04005KT 1200 R34L/0700VP1800D R22/0800VP1800D R16L/1000VP1800D R23/0650V1800D +SHRA BR FEW002 SCT007 BKN012 21/21 Q1005 RMK 1ST002 4ST007 6ST012 A2969
RJTT 030030Z 05004KT 1200 R34L/0700VP1800D R22/0800VP1800D R16L/1000VP1800D R23/0900VP1800D +SHRA BR FEW002 SCT007 BKN010 21/21 Q1005 TEMPO FEW003 BKN005 RMK 1ST002 4ST007 6ST010 A2968 RI++
RJTT 030027Z 05004KT 010V070 1200 R34L/1000VP1800D R22/0800VP1800D R16L/1000VP1800D R23/1100VP1800U +SHRA BR FEW002 SCT007 BKN010 21/21 Q1005 RMK 1ST002 4ST007 6ST010 A2969 RI++


RJTT 031400Z VRB03KT 3500 +SHRA BR FEW020 BKN045 BKN060 22/21 Q1006 BECMG 22010KT 6000 -SHRA RMK 1CU020 6CU045 7SC060 A2971
RJTT 031346Z 22007KT 2200 R34L/1000VP1800D R22/1200VP1800D R16L/1800D R23/1400VP1800D +SHRA BR FEW010 BKN030 BKN045 23/21 Q1006 RMK 1CU010 5CU030 6CU045 A2972 RI++
RJTT 031341Z 23006KT 3000 R34L/1000VP1800D R22/P1800N R16L/P1800N R23/1400VP1800D +SHRA BR FEW015 BKN030 BKN045 23/21 Q1006 RMK 1CU015 5CU030 7CU045 A2973 MOD TURB OBS AT 1329Z 15NM SE UTIBO 11000FT IN DES BY B737

成田空港
午前中
RJAA 030133Z 32017KT 0300 R34L/0400V1600D R34R/0350V0650D +SHRA FEW001 BKN003 BKN010 21/21 Q1005 RMK 1ST001 5ST003 7CU010 A2970 RI++
RJAA 030130Z 32017KT 0300 R34L/0550V1600D R34R/0400V0900D +SHRA FEW001 BKN003 BKN010 22/21 Q1006 NOSIG RMK 1ST001 5ST003 7CU010 A2971 RI++
RJAA 030127Z 33015G25KT 0500 R34L/0800V1600U R34R/0550V0900D +SHRA FEW001 BKN003 BKN010 22/21 Q1005 RMK 1ST001 5ST003 7CU010 A2969 RI++
RJAA 030124Z 36011KT 0300 R34L/0800V1600U R34R/0550VP1800D +SHRA FEW001 BKN003 BKN010 22/21 Q1004 RMK 1ST001 5ST003 7CU010 A2967
RJAA 030121Z 01010KT 0500 R34L/0800V1600N R34R/0800VP1800D +SHRA FEW001 BKN003 BKN010 22/21 Q1005 RMK 1ST001 5ST003 7CU010 A2968 RI++
RJAA 030119Z 07009KT 310V110 1200 R34L/0900V1800D R34R/0900VP1800D +SHRA BR FEW001 BKN003 BKN010 21/21 Q1005 RMK 1ST001 5ST003 7CU010 A2970 RI++
RJAA 030116Z 09009KT 060V160 1800 R16R/0900VP1800D R16L/0600VP1800D +SHRA BR FEW001 BKN003 BKN010 21/21 Q1005 RMK 1ST001 5ST003 7CU010 A2970 RI++
RJAA 030113Z 10010KT 070V160 2000 R16R/1600VP1800D R16L/1300VP1800U +SHRA BR FEW001 BKN003 BKN010 22/21 Q1005 RMK 1ST001 5ST003 7CU010 A2969 RI++


RJAA 031500Z 33008KT 3500 R16R/P1800N R16L/0800VP1800U +SHRA BR FEW005 SCT030 BKN040 22/20 Q1005 BECMG 22008KT RMK 1ST005 4CU030 5CU040 A2969 P/FR
RJAA 031440Z 29008KT 3200 R16R/P1800N R16L/1100VP1800D +SHRA BR FEW003 SCT035 BKN090 22/21 Q1006 RMK 1ST003 3CU035 7AC090 A2972
RJAA 031436Z 28009KT 3500 R16R/P1800N R16L/1100VP1800N +SHRA BR FEW003 SCT035 BKN090 22/21 Q1006 RMK 1ST003 3CU035 7AC090 A2973
スポンサーサイト
00:18  |  未分類  |  TB(0)  |  CM(0)  |  EDIT  |  Top↑

コメントを投稿する


 管理者だけに表示  (非公開コメント投稿可能)

▲PageTop

この記事のトラックバックURL

→http://weathereucalyptus.blog115.fc2.com/tb.php/681-e3a470ad
この記事にトラックバックする(FC2ブログユーザー)

この記事へのトラックバック

▲PageTop

 | BLOGTOP |